KGCC/GCC METAR and TAF weather

Enter ICAO airport designator
Station Type Date Time Source
KGCC METAR 2019/04/20 18:53 UTC NOAA

KGCC 201853Z AUTO 36010KT 10SM CLR 21/05 A2976 RMK AO2 SLP043 T02110050


Station Type Date Time Source
KGCC Decoded METAR 2019/04/20 18:53 UTC NOAA

GILLETTE-CAMPBELL CTY AIRPORT , WY, United States (KGCC) 44-20N 105-33W 1320M
Apr 20, 2019 - 02:53 PM EDT / 2019.04.20 1853 UTC
Wind: from the N (360 degrees) at 12 MPH (10 KT):0
Visibility: 10 mile(s):0
Sky conditions: clear
Temperature: 70.0 F (21.1 C)
Dew Point: 41.0 F (5.0 C)
Relative Humidity: 34%
Pressure (altimeter): 29.76 in. Hg (1007 hPa)
ob: KGCC 201853Z AUTO 36010KT 10SM CLR 21/05 A2976 RMK AO2 SLP043 T02110050
cycle: 19

Station Type Date Time Source
KGCC TAF 2019/04/20 18:22 UTC NOAA

TAF KGCC 201720Z 2018/2118 35009KT P6SM BKN200
FM202200 02014KT P6SM BKN100
FM210100 03013KT P6SM -TSRA BKN050CB
FM210300 02010KT P6SM OVC015
FM211200 03016KT 5SM -RA OVC005

Example: see airport list